Manchester, VT (05254)

6:48 AM EDT on August 30, 2015 (GMT -0400)
Zoey's Deli Weather Station | | Change Station
CLOSE
Current Station
Personal Weather Station
Location: Manchester, VT
Elevation: 712 ft
Nearby Weather Stations

Elev 712 ft 43.17 °N, 73.05 °W | Updated 3 minutes ago

Mostly Cloudy
Mostly Cloudy
60.1 °F
Feels Like 60.1 °F
N
0.0
Wind Variable Wind from WSW
Gusts 1.0 mph

Today
High -- | Low -- °F
--% Chance of Precip.
Yesterday
High -- | Low -- °F
Precip. -- in
6:14 AM 7:31 PM
Full, 99% visible
Pressure 30.10 in
Visibility 1.8 miles
Clouds Clear
Dew Point 58 °F
Humidity 92%
Rainfall 0.00 in
Snow Depth Not available.
UV 0 out of 12
Pollen 9.10 out of 12
Air Quality Not available.
Flu Activity Not available.
SPECI KDDH 301037Z AUTO 00000KT 1 3/4SM BR CLR 13/12 A3010 RMK AO2 T01280122 $
Pressure 30.10 in
Visibility 1.8 miles
Clouds Clear
Dew Point 58 °F
Humidity 92%
Rainfall 0.00 in
Snow Depth Not available.
UV 0 out of 12
Pollen 9.10 out of 12
Air Quality Not available.
Flu Activity Not available.
SPECI KDDH 301037Z AUTO 00000KT 1 3/4SM BR CLR 13/12 A3010 RMK AO2 T01280122 $

10-Day Weather Forecast

×

Almanac

Astronomy

Aug. 30, 2015 Rise Set
Actual Time
Civil Twilight
Nautical Twilight
Astronomical Twilight
Moon
Length of Visible Light
Length of Day
Tomorrow will be .
, % of the Moon is Illuminated

Today's Extremes

State Highs State Lows

Community

WunderPhotos

Upload Photos

1,850,925 photos uploaded!

WunderBlogs® & News

Nearby

Air Quality

  Air Quality AQ Index Pollutant
Not available.

Snow Depth

Station Depth Elevation

Earthquake Activity

City Distance Mag. Time & Date
Minimum magnitude displayed is 2.5.

Coastal Water Temperatures

Place Temperature

Stations

Nearby Weather Stations

Station Location Temp. Windchill Dew Point Humidity Wind Precip. Elev Updated Type